EWG72D LOWS-EDDH
Flight info
| Callsign | EWG72D |
|---|---|
| Flight time | 1h 6m |
| Altitude | 36000 |
| Route | INROM DCT SIMBA Y700 NENUM DCT EPTEU DCT RUDNO M736 AKOSI DCT ALOSO DCT KENIG DCT ABGUS DCT DIRBO T902 RARUP RARUP6A |
| Aircraft | A319/M-SDE3FGHIRWY/LB1 |
Departure
| Time | 2026-05-06 15:48 |
|---|---|
| Airport | Salzburg Airport (LOWS) |
Arrival
| Time | 2026-05-06 16:55 |
|---|---|
| Airport | Hamburg Helmut Schmidt Airport (EDDH) |
| Time | Latitude | Longitude | Altitude | Speed | Heading |
|---|---|---|---|---|---|
| 2026-05-06 15:32 | 47.79125 | 13.00144 | 1422 ft | 0 kts | 102° |
| 2026-05-06 15:41 | 47.79127 | 13.00123 | 1422 ft | 4 kts | 99° |
| 2026-05-06 15:41 | 47.79131 | 13.00083 | 1422 ft | 4 kts | 98° |
| 2026-05-06 15:41 | 47.79137 | 13.00046 | 1422 ft | 4 kts | 126° |
| 2026-05-06 15:42 | 47.79145 | 13.00034 | 1422 ft | 0 kts | 157° |
| 2026-05-06 15:44 | 47.79130 | 13.00043 | 1422 ft | 4 kts | 157° |
| 2026-05-06 15:45 | 47.79092 | 13.00068 | 1422 ft | 8 kts | 157° |
| 2026-05-06 15:45 | 47.79021 | 13.00112 | 1422 ft | 13 kts | 157° |
| 2026-05-06 15:45 | 47.78958 | 13.00201 | 1422 ft | 14 kts | 100° |
| 2026-05-06 15:45 | 47.78949 | 13.00349 | 1421 ft | 14 kts | 108° |
| 2026-05-06 15:46 | 47.78853 | 13.00430 | 1420 ft | 18 kts | 156° |
| 2026-05-06 15:46 | 47.78732 | 13.00508 | 1420 ft | 20 kts | 157° |
| 2026-05-06 15:46 | 47.78603 | 13.00586 | 1422 ft | 20 kts | 158° |
| 2026-05-06 15:46 | 47.78473 | 13.00669 | 1421 ft | 21 kts | 157° |
| 2026-05-06 15:47 | 47.78336 | 13.00754 | 1421 ft | 22 kts | 157° |
| 2026-05-06 15:47 | 47.78203 | 13.00870 | 1420 ft | 23 kts | 129° |
| 2026-05-06 15:47 | 47.78246 | 13.01059 | 1417 ft | 23 kts | 4° |
| 2026-05-06 15:47 | 47.78421 | 13.00971 | 1419 ft | 38 kts | 337° |
| 2026-05-06 15:48 | 47.78836 | 13.00709 | 1424 ft | 93 kts | 337° |
| 2026-05-06 15:48 | 47.79607 | 13.00224 | 1425 ft | 146 kts | 337° |
| 2026-05-06 15:48 | 47.80619 | 12.99610 | 1856 ft | 154 kts | 341° |
| 2026-05-06 15:48 | 47.81608 | 12.99048 | 2463 ft | 152 kts | 351° |
| 2026-05-06 15:49 | 47.82693 | 12.99118 | 2859 ft | 165 kts | 18° |
| 2026-05-06 15:49 | 47.83726 | 13.00000 | 3288 ft | 180 kts | 39° |
| 2026-05-06 15:49 | 47.84788 | 13.01181 | 3682 ft | 201 kts | 38° |
| 2026-05-06 15:49 | 47.85985 | 13.02470 | 4041 ft | 225 kts | 37° |
| 2026-05-06 15:50 | 47.87342 | 13.03913 | 4403 ft | 253 kts | 36° |
| 2026-05-06 15:50 | 47.88819 | 13.05501 | 4965 ft | 273 kts | 37° |
| 2026-05-06 15:50 | 47.90372 | 13.07193 | 5867 ft | 278 kts | 37° |
| 2026-05-06 15:50 | 47.91955 | 13.08928 | 6748 ft | 283 kts | 37° |
| 2026-05-06 15:51 | 47.93544 | 13.10661 | 7579 ft | 290 kts | 37° |
| 2026-05-06 15:51 | 47.95206 | 13.12465 | 8358 ft | 299 kts | 36° |
| 2026-05-06 15:51 | 47.96920 | 13.14314 | 9168 ft | 307 kts | 36° |
| 2026-05-06 15:51 | 47.98783 | 13.15963 | 9858 ft | 315 kts | 20° |
| 2026-05-06 15:52 | 48.00913 | 13.16808 | 10295 ft | 330 kts | 4° |
| 2026-05-06 15:52 | 48.03274 | 13.16736 | 10540 ft | 348 kts | 347° |
| 2026-05-06 15:52 | 48.05616 | 13.15644 | 10819 ft | 360 kts | 330° |
| 2026-05-06 15:52 | 48.07873 | 13.13820 | 11129 ft | 375 kts | 327° |
| 2026-05-06 15:53 | 48.10192 | 13.11909 | 11685 ft | 382 kts | 327° |
| 2026-05-06 15:53 | 48.12548 | 13.09993 | 12400 ft | 386 kts | 327° |
| 2026-05-06 15:53 | 48.14890 | 13.08100 | 13066 ft | 389 kts | 327° |
| 2026-05-06 15:53 | 48.17294 | 13.06164 | 13709 ft | 393 kts | 327° |
| 2026-05-06 15:54 | 48.19721 | 13.04217 | 14291 ft | 397 kts | 327° |
| 2026-05-06 15:54 | 48.22236 | 13.02398 | 14866 ft | 406 kts | 334° |
| 2026-05-06 15:54 | 48.24974 | 13.01193 | 15434 ft | 416 kts | 344° |
| 2026-05-06 15:54 | 48.27867 | 13.00511 | 16016 ft | 422 kts | 347° |
| 2026-05-06 15:55 | 48.30758 | 12.99871 | 16589 ft | 427 kts | 347° |
| 2026-05-06 15:55 | 48.33723 | 12.99217 | 17183 ft | 431 kts | 347° |
| 2026-05-06 15:55 | 48.36710 | 12.98560 | 17842 ft | 435 kts | 348° |
| 2026-05-06 15:55 | 48.39717 | 12.97898 | 18364 ft | 438 kts | 348° |
| 2026-05-06 15:56 | 48.42749 | 12.97229 | 18873 ft | 441 kts | 348° |
| 2026-05-06 15:56 | 48.45807 | 12.96556 | 19379 ft | 445 kts | 347° |
| 2026-05-06 15:56 | 48.48856 | 12.95884 | 19864 ft | 448 kts | 347° |
| 2026-05-06 15:56 | 48.51964 | 12.95199 | 20347 ft | 451 kts | 347° |
| 2026-05-06 15:57 | 48.55086 | 12.94505 | 20824 ft | 454 kts | 347° |
| 2026-05-06 15:57 | 48.58187 | 12.93821 | 21264 ft | 458 kts | 347° |
| 2026-05-06 15:57 | 48.61355 | 12.93132 | 21711 ft | 461 kts | 348° |
| 2026-05-06 15:57 | 48.64537 | 12.92443 | 22144 ft | 464 kts | 348° |
| 2026-05-06 15:58 | 48.67747 | 12.91746 | 22553 ft | 467 kts | 347° |
| 2026-05-06 15:58 | 48.70982 | 12.91038 | 22958 ft | 470 kts | 347° |
| 2026-05-06 15:58 | 48.74242 | 12.90323 | 23353 ft | 473 kts | 347° |
| 2026-05-06 15:58 | 48.77470 | 12.89614 | 23681 ft | 476 kts | 347° |
| 2026-05-06 15:59 | 48.80752 | 12.88894 | 24052 ft | 478 kts | 347° |
| 2026-05-06 15:59 | 48.84063 | 12.88170 | 24404 ft | 480 kts | 347° |
| 2026-05-06 15:59 | 48.87371 | 12.87445 | 24755 ft | 482 kts | 347° |
| 2026-05-06 15:59 | 48.90701 | 12.86712 | 25109 ft | 483 kts | 347° |
| 2026-05-06 16:00 | 48.94003 | 12.85984 | 25422 ft | 485 kts | 347° |
| 2026-05-06 16:00 | 48.97357 | 12.85247 | 25785 ft | 487 kts | 347° |
| 2026-05-06 16:00 | 49.00731 | 12.84505 | 26130 ft | 489 kts | 347° |
| 2026-05-06 16:00 | 49.04119 | 12.83755 | 26443 ft | 491 kts | 347° |
| 2026-05-06 16:01 | 49.07509 | 12.82999 | 26752 ft | 493 kts | 347° |
| 2026-05-06 16:01 | 49.10880 | 12.82042 | 27083 ft | 490 kts | 340° |
| 2026-05-06 16:01 | 49.14094 | 12.80398 | 27387 ft | 485 kts | 331° |
| 2026-05-06 16:01 | 49.17064 | 12.78116 | 27706 ft | 479 kts | 322° |
| 2026-05-06 16:02 | 49.19771 | 12.75234 | 28160 ft | 470 kts | 314° |
| 2026-05-06 16:02 | 49.22164 | 12.71886 | 28634 ft | 462 kts | 308° |
| 2026-05-06 16:02 | 49.24423 | 12.68394 | 29121 ft | 460 kts | 308° |
| 2026-05-06 16:02 | 49.26639 | 12.64959 | 29616 ft | 458 kts | 308° |
| 2026-05-06 16:03 | 49.28872 | 12.61483 | 30081 ft | 455 kts | 308° |
| 2026-05-06 16:03 | 49.31088 | 12.58031 | 30507 ft | 454 kts | 308° |
| 2026-05-06 16:03 | 49.33323 | 12.54594 | 30953 ft | 455 kts | 310° |
| 2026-05-06 16:03 | 49.35773 | 12.51455 | 31269 ft | 460 kts | 314° |
| 2026-05-06 16:04 | 49.38287 | 12.48394 | 31615 ft | 461 kts | 314° |
| 2026-05-06 16:04 | 49.40809 | 12.45337 | 32014 ft | 460 kts | 314° |
| 2026-05-06 16:04 | 49.43298 | 12.42323 | 32419 ft | 459 kts | 314° |
| 2026-05-06 16:04 | 49.45801 | 12.39292 | 32835 ft | 458 kts | 314° |
| 2026-05-06 16:05 | 49.48302 | 12.36255 | 33250 ft | 457 kts | 314° |
| 2026-05-06 16:05 | 49.50798 | 12.33214 | 33663 ft | 456 kts | 314° |
| 2026-05-06 16:05 | 49.53290 | 12.30165 | 34033 ft | 455 kts | 314° |
| 2026-05-06 16:05 | 49.55730 | 12.27164 | 34367 ft | 455 kts | 314° |
| 2026-05-06 16:06 | 49.58198 | 12.24122 | 34698 ft | 455 kts | 314° |
| 2026-05-06 16:06 | 49.60672 | 12.21070 | 35038 ft | 455 kts | 315° |
| 2026-05-06 16:06 | 49.63153 | 12.18012 | 35320 ft | 455 kts | 315° |
| 2026-05-06 16:06 | 49.65639 | 12.14948 | 35612 ft | 456 kts | 315° |
| 2026-05-06 16:07 | 49.68115 | 12.11941 | 35729 ft | 459 kts | 318° |
| 2026-05-06 16:07 | 49.70876 | 12.09341 | 35751 ft | 467 kts | 328° |
| 2026-05-06 16:07 | 49.77120 | 12.06207 | 35751 ft | 478 kts | 342° |
| 2026-05-06 16:08 | 49.83603 | 12.03817 | 35749 ft | 478 kts | 341° |
| 2026-05-06 16:08 | 49.90060 | 12.01357 | 35756 ft | 478 kts | 341° |
| 2026-05-06 16:09 | 49.96520 | 11.98883 | 35773 ft | 478 kts | 341° |
| 2026-05-06 16:09 | 50.02949 | 11.96424 | 35774 ft | 478 kts | 341° |
| 2026-05-06 16:10 | 50.09420 | 11.93940 | 35810 ft | 477 kts | 341° |
| 2026-05-06 16:10 | 50.15817 | 11.91490 | 35804 ft | 476 kts | 342° |
| 2026-05-06 16:11 | 50.22287 | 11.89011 | 35795 ft | 475 kts | 342° |
| 2026-05-06 16:11 | 50.28663 | 11.86569 | 35794 ft | 475 kts | 342° |
| 2026-05-06 16:12 | 50.35090 | 11.84091 | 35787 ft | 474 kts | 342° |
| 2026-05-06 16:12 | 50.41507 | 11.81592 | 35781 ft | 474 kts | 342° |
| 2026-05-06 16:13 | 50.47886 | 11.79123 | 35773 ft | 474 kts | 342° |
| 2026-05-06 16:13 | 50.54315 | 11.76621 | 35768 ft | 474 kts | 342° |
| 2026-05-06 16:14 | 50.60711 | 11.74115 | 35760 ft | 474 kts | 341° |
| 2026-05-06 16:14 | 50.67114 | 11.71592 | 35785 ft | 474 kts | 342° |
| 2026-05-06 16:15 | 50.73501 | 11.69017 | 35783 ft | 473 kts | 340° |
| 2026-05-06 16:15 | 50.79803 | 11.66074 | 35774 ft | 471 kts | 339° |
| 2026-05-06 16:16 | 50.86083 | 11.62973 | 35757 ft | 472 kts | 339° |
| 2026-05-06 16:16 | 50.92320 | 11.59943 | 35749 ft | 472 kts | 339° |
| 2026-05-06 16:17 | 50.98636 | 11.56965 | 35748 ft | 473 kts | 339° |
| 2026-05-06 16:17 | 51.04956 | 11.53996 | 35750 ft | 473 kts | 339° |
| 2026-05-06 16:18 | 51.11247 | 11.50996 | 35760 ft | 474 kts | 339° |
| 2026-05-06 16:18 | 51.17565 | 11.47953 | 35760 ft | 474 kts | 339° |
| 2026-05-06 16:19 | 51.23906 | 11.44901 | 35773 ft | 474 kts | 339° |
| 2026-05-06 16:19 | 51.30233 | 11.41860 | 35770 ft | 475 kts | 339° |
| 2026-05-06 16:20 | 51.36560 | 11.38799 | 35769 ft | 476 kts | 339° |
| 2026-05-06 16:20 | 51.42868 | 11.35739 | 35769 ft | 476 kts | 339° |
| 2026-05-06 16:21 | 51.49236 | 11.32651 | 35774 ft | 476 kts | 339° |
| 2026-05-06 16:21 | 51.55581 | 11.29551 | 35796 ft | 476 kts | 339° |
| 2026-05-06 16:22 | 51.61837 | 11.26344 | 35802 ft | 472 kts | 333° |
| 2026-05-06 16:22 | 51.67658 | 11.21598 | 35787 ft | 468 kts | 328° |
| 2026-05-06 16:23 | 51.73428 | 11.16690 | 35805 ft | 467 kts | 328° |
| 2026-05-06 16:23 | 51.79153 | 11.11820 | 35805 ft | 467 kts | 328° |
| 2026-05-06 16:24 | 51.84937 | 11.07014 | 35792 ft | 469 kts | 333° |
| 2026-05-06 16:24 | 51.91269 | 11.04363 | 35798 ft | 477 kts | 349° |
| 2026-05-06 16:25 | 51.97863 | 11.02991 | 35802 ft | 477 kts | 349° |
| 2026-05-06 16:25 | 52.04462 | 11.01583 | 35806 ft | 477 kts | 349° |
| 2026-05-06 16:26 | 52.11019 | 11.00167 | 35804 ft | 477 kts | 349° |
| 2026-05-06 16:26 | 52.17604 | 10.98730 | 35804 ft | 477 kts | 349° |
| 2026-05-06 16:27 | 52.24189 | 10.97314 | 35806 ft | 477 kts | 349° |
| 2026-05-06 16:27 | 52.29672 | 10.96141 | 35817 ft | 476 kts | 349° |
| 2026-05-06 16:28 | 52.37323 | 10.94493 | 35831 ft | 476 kts | 349° |
| 2026-05-06 16:28 | 52.42798 | 10.93300 | 35827 ft | 476 kts | 349° |
| 2026-05-06 16:29 | 52.49368 | 10.91861 | 35824 ft | 476 kts | 349° |
| 2026-05-06 16:29 | 52.55940 | 10.90430 | 35839 ft | 475 kts | 349° |
| 2026-05-06 16:30 | 52.61383 | 10.89251 | 35837 ft | 474 kts | 349° |
| 2026-05-06 16:30 | 52.68992 | 10.87568 | 35834 ft | 474 kts | 349° |
| 2026-05-06 16:31 | 52.75553 | 10.86110 | 35845 ft | 474 kts | 349° |
| 2026-05-06 16:31 | 52.82099 | 10.84663 | 35843 ft | 474 kts | 349° |
| 2026-05-06 16:32 | 52.88610 | 10.83273 | 35849 ft | 474 kts | 350° |
| 2026-05-06 16:32 | 52.95165 | 10.81972 | 35849 ft | 474 kts | 350° |
| 2026-05-06 16:33 | 53.01736 | 10.80664 | 35852 ft | 473 kts | 350° |
| 2026-05-06 16:33 | 53.04968 | 10.80008 | 35677 ft | 465 kts | 350° |
| 2026-05-06 16:34 | 53.11330 | 10.78703 | 34974 ft | 456 kts | 350° |
| 2026-05-06 16:34 | 53.14468 | 10.78053 | 34582 ft | 452 kts | 350° |
| 2026-05-06 16:34 | 53.17578 | 10.77408 | 34222 ft | 448 kts | 350° |
| 2026-05-06 16:34 | 53.20628 | 10.76775 | 33880 ft | 444 kts | 350° |
| 2026-05-06 16:35 | 53.23717 | 10.76135 | 32842 ft | 452 kts | 351° |
| 2026-05-06 16:35 | 53.26878 | 10.75478 | 31753 ft | 462 kts | 352° |
| 2026-05-06 16:35 | 53.30064 | 10.74814 | 31072 ft | 460 kts | 352° |
| 2026-05-06 16:35 | 53.33233 | 10.74158 | 30432 ft | 457 kts | 353° |
| 2026-05-06 16:36 | 53.36418 | 10.73509 | 29248 ft | 465 kts | 353° |
| 2026-05-06 16:36 | 53.39645 | 10.72851 | 28163 ft | 468 kts | 353° |
| 2026-05-06 16:36 | 53.42884 | 10.72181 | 27077 ft | 469 kts | 353° |
| 2026-05-06 16:36 | 53.46136 | 10.71502 | 26072 ft | 470 kts | 352° |
| 2026-05-06 16:37 | 53.49332 | 10.70831 | 25223 ft | 467 kts | 352° |
| 2026-05-06 16:37 | 53.52545 | 10.70156 | 24150 ft | 467 kts | 352° |
| 2026-05-06 16:37 | 53.55804 | 10.69420 | 22914 ft | 469 kts | 348° |
| 2026-05-06 16:37 | 53.58832 | 10.67611 | 21584 ft | 456 kts | 328° |
| 2026-05-06 16:38 | 53.61212 | 10.64242 | 20260 ft | 442 kts | 306° |
| 2026-05-06 16:38 | 53.62636 | 10.59861 | 19018 ft | 427 kts | 284° |
| 2026-05-06 16:38 | 53.62976 | 10.55011 | 17750 ft | 412 kts | 263° |
| 2026-05-06 16:38 | 53.62331 | 10.50382 | 16327 ft | 402 kts | 248° |
| 2026-05-06 16:39 | 53.61184 | 10.46107 | 14928 ft | 398 kts | 241° |
| 2026-05-06 16:39 | 53.59904 | 10.41996 | 13636 ft | 394 kts | 241° |
| 2026-05-06 16:39 | 53.58508 | 10.38056 | 12170 ft | 391 kts | 229° |
| 2026-05-06 16:39 | 53.56478 | 10.35049 | 10799 ft | 387 kts | 210° |
| 2026-05-06 16:40 | 53.54007 | 10.33361 | 9622 ft | 382 kts | 194° |
| 2026-05-06 16:40 | 53.51545 | 10.32216 | 9309 ft | 353 kts | 194° |
| 2026-05-06 16:40 | 53.49276 | 10.31110 | 9164 ft | 325 kts | 194° |
| 2026-05-06 16:40 | 53.47186 | 10.30100 | 9017 ft | 301 kts | 194° |
| 2026-05-06 16:41 | 53.45234 | 10.29135 | 8663 ft | 290 kts | 198° |
| 2026-05-06 16:41 | 53.43527 | 10.27407 | 8246 ft | 289 kts | 225° |
| 2026-05-06 16:41 | 53.42464 | 10.24568 | 7929 ft | 288 kts | 253° |
| 2026-05-06 16:41 | 53.42284 | 10.21274 | 7649 ft | 284 kts | 281° |
| 2026-05-06 16:42 | 53.42996 | 10.18252 | 7296 ft | 279 kts | 309° |
| 2026-05-06 16:42 | 53.44434 | 10.16191 | 7033 ft | 268 kts | 337° |
| 2026-05-06 16:42 | 53.46178 | 10.15563 | 6913 ft | 255 kts | 2° |
| 2026-05-06 16:42 | 53.47938 | 10.15594 | 6787 ft | 249 kts | 3° |
| 2026-05-06 16:43 | 53.49642 | 10.15156 | 6654 ft | 247 kts | 342° |
| 2026-05-06 16:43 | 53.51052 | 10.13638 | 6531 ft | 243 kts | 316° |
| 2026-05-06 16:43 | 53.51923 | 10.11263 | 6479 ft | 239 kts | 290° |
| 2026-05-06 16:43 | 53.52096 | 10.08490 | 6426 ft | 240 kts | 263° |
| 2026-05-06 16:44 | 53.51731 | 10.05749 | 6374 ft | 241 kts | 257° |
| 2026-05-06 16:44 | 53.51329 | 10.03008 | 6320 ft | 240 kts | 257° |
| 2026-05-06 16:44 | 53.50933 | 10.00304 | 6268 ft | 240 kts | 257° |
| 2026-05-06 16:44 | 53.50535 | 9.97585 | 6213 ft | 240 kts | 257° |
| 2026-05-06 16:45 | 53.50025 | 9.94911 | 6156 ft | 241 kts | 244° |
| 2026-05-06 16:45 | 53.49111 | 9.92553 | 6100 ft | 241 kts | 229° |
| 2026-05-06 16:45 | 53.48026 | 9.90392 | 6043 ft | 242 kts | 230° |
| 2026-05-06 16:45 | 53.46949 | 9.88231 | 5988 ft | 241 kts | 230° |
| 2026-05-06 16:46 | 53.45888 | 9.86095 | 5929 ft | 240 kts | 230° |
| 2026-05-06 16:46 | 53.44818 | 9.83945 | 5877 ft | 239 kts | 230° |
| 2026-05-06 16:46 | 53.43752 | 9.81804 | 5822 ft | 240 kts | 230° |
| 2026-05-06 16:46 | 53.42686 | 9.79662 | 5600 ft | 239 kts | 230° |
| 2026-05-06 16:47 | 53.41624 | 9.77516 | 5359 ft | 238 kts | 232° |
| 2026-05-06 16:47 | 53.40967 | 9.75038 | 5190 ft | 230 kts | 265° |
| 2026-05-06 16:47 | 53.41198 | 9.72477 | 4939 ft | 221 kts | 301° |
| 2026-05-06 16:47 | 53.42110 | 9.70450 | 4651 ft | 217 kts | 317° |
| 2026-05-06 16:48 | 53.43140 | 9.68660 | 4408 ft | 212 kts | 319° |
| 2026-05-06 16:48 | 53.44231 | 9.67117 | 4266 ft | 198 kts | 340° |
| 2026-05-06 16:48 | 53.45521 | 9.66650 | 4058 ft | 186 kts | 5° |
| 2026-05-06 16:48 | 53.46759 | 9.67060 | 3787 ft | 179 kts | 27° |
| 2026-05-06 16:49 | 53.47758 | 9.68168 | 3673 ft | 166 kts | 45° |
| 2026-05-06 16:49 | 53.48486 | 9.69582 | 3531 ft | 153 kts | 51° |
| 2026-05-06 16:49 | 53.49144 | 9.70891 | 3402 ft | 139 kts | 52° |
| 2026-05-06 16:49 | 53.49720 | 9.72038 | 3189 ft | 125 kts | 52° |
| 2026-05-06 16:50 | 53.50273 | 9.73142 | 3025 ft | 123 kts | 52° |
| 2026-05-06 16:50 | 53.50828 | 9.74253 | 3012 ft | 124 kts | 52° |
| 2026-05-06 16:50 | 53.51412 | 9.75426 | 3029 ft | 141 kts | 52° |
| 2026-05-06 16:50 | 53.52061 | 9.76727 | 3010 ft | 148 kts | 52° |
| 2026-05-06 16:51 | 53.52726 | 9.78058 | 2902 ft | 149 kts | 52° |
| 2026-05-06 16:51 | 53.53390 | 9.79390 | 2737 ft | 148 kts | 51° |
| 2026-05-06 16:51 | 53.54052 | 9.80719 | 2556 ft | 148 kts | 51° |
| 2026-05-06 16:51 | 53.54712 | 9.82043 | 2357 ft | 146 kts | 52° |
| 2026-05-06 16:52 | 53.55362 | 9.83348 | 2158 ft | 144 kts | 52° |
| 2026-05-06 16:52 | 53.55999 | 9.84630 | 1962 ft | 145 kts | 51° |
| 2026-05-06 16:52 | 53.56649 | 9.85936 | 1766 ft | 145 kts | 51° |
| 2026-05-06 16:52 | 53.57293 | 9.87232 | 1556 ft | 144 kts | 50° |
| 2026-05-06 16:53 | 53.57933 | 9.88520 | 1363 ft | 144 kts | 50° |
| 2026-05-06 16:53 | 53.58550 | 9.89763 | 1158 ft | 131 kts | 50° |
| 2026-05-06 16:53 | 53.59118 | 9.90908 | 975 ft | 124 kts | 51° |
| 2026-05-06 16:53 | 53.59659 | 9.91997 | 813 ft | 123 kts | 50° |
| 2026-05-06 16:54 | 53.60207 | 9.93107 | 677 ft | 122 kts | 50° |
| 2026-05-06 16:54 | 53.60754 | 9.94215 | 452 ft | 124 kts | 51° |
| 2026-05-06 16:54 | 53.61306 | 9.95322 | 292 ft | 122 kts | 51° |
| 2026-05-06 16:54 | 53.61862 | 9.96440 | 125 ft | 125 kts | 50° |
| 2026-05-06 16:55 | 53.62396 | 9.97518 | 42 ft | 110 kts | 50° |
| 2026-05-06 16:55 | 53.62805 | 9.98353 | 45 ft | 75 kts | 50° |
| 2026-05-06 16:55 | 53.63086 | 9.98957 | 45 ft | 35 kts | 67° |
| 2026-05-06 16:55 | 53.63088 | 9.99157 | 44 ft | 11 kts | 92° |
| 2026-05-06 16:56 | 53.63083 | 9.99278 | 44 ft | 10 kts | 94° |
| 2026-05-06 16:56 | 53.63100 | 9.99402 | 43 ft | 12 kts | 61° |
| 2026-05-06 16:56 | 53.63153 | 9.99528 | 43 ft | 15 kts | 53° |
| 2026-05-06 16:56 | 53.63182 | 9.99594 | 44 ft | 0 kts | 52° |
| 2026-05-06 16:57 | 53.63183 | 9.99595 | 44 ft | 0 kts | 52° |
| 2026-05-06 16:57 | 53.63191 | 9.99611 | 44 ft | 3 kts | 50° |
| 2026-05-06 16:58 | 53.63211 | 9.99648 | 45 ft | 5 kts | 48° |
| 2026-05-06 16:58 | 53.63228 | 9.99719 | 42 ft | 9 kts | 94° |
| 2026-05-06 16:58 | 53.63179 | 9.99800 | 45 ft | 12 kts | 152° |
| 2026-05-06 16:58 | 53.63106 | 9.99864 | 45 ft | 10 kts | 152° |
| 2026-05-06 16:59 | 53.63042 | 9.99919 | 45 ft | 11 kts | 153° |
| 2026-05-06 16:59 | 53.62978 | 9.99974 | 46 ft | 9 kts | 152° |
| 2026-05-06 16:59 | 53.62927 | 10.00017 | 46 ft | 9 kts | 154° |
| 2026-05-06 16:59 | 53.62894 | 10.00044 | 46 ft | 5 kts | 154° |
| 2026-05-06 17:00 | 53.62860 | 10.00071 | 44 ft | 7 kts | 156° |
| 2026-05-06 17:00 | 53.62812 | 10.00106 | 46 ft | 8 kts | 157° |
| 2026-05-06 17:00 | 53.62790 | 10.00191 | 46 ft | 10 kts | 69° |
| 2026-05-06 17:00 | 53.62808 | 10.00247 | 46 ft | 0 kts | 62° |